Time;durP1;ratioP1;P1;durP2;ratioP2;P2;SDS_P1;SDS_P2;PMS_P1;PMS_P2;Temp;Humidity;BMP_temperature;BMP_pressure;BME280_temperature;BME280_humidity;BME280_pressure;Samples;Min_cycle;Max_cycle;Signal;HPM_P1;HPM_P2
2022/10/09 00:00:05;;;;;;;14.05;7.40;;;19.80;95.90;;;19.62;71.71;99273.03;5094773;28;20553;-76
2022/10/09 00:02:52;;;;;;;10.50;6.95;;;19.80;95.90;;;19.63;71.59;99285.66;5051077;28;1146750;-76
2022/10/09 00:05:18;;;;;;;11.45;6.30;;;19.80;95.90;;;19.63;71.41;99291.16;5102875;28;20040;-76
2022/10/09 00:07:44;;;;;;;11.27;7.18;;;19.80;95.90;;;19.64;72.24;99286.44;5081758;28;20052;-76
2022/10/09 00:10:10;;;;;;;12.00;6.75;;;19.80;96.00;;;19.64;72.18;99291.94;5071593;28;20433;-76
2022/10/09 00:12:35;;;;;;;11.05;7.50;;;19.80;96.00;;;19.64;71.55;99295.53;5098491;28;20092;-76
2022/10/09 00:15:02;;;;;;;9.75;7.13;;;19.80;96.20;;;19.64;71.45;99306.53;5083880;28;20039;-76
2022/10/09 00:17:28;;;;;;;7.82;6.28;;;19.80;95.90;;;19.64;71.05;99312.06;5067389;28;20048;-76
2022/10/09 00:19:54;;;;;;;9.90;6.63;;;19.90;95.90;;;19.63;71.40;99321.41;5096720;28;20059;-76
2022/10/09 00:22:20;;;;;;;10.48;6.13;;;19.80;95.90;;;19.64;71.49;99325.81;5071097;28;20036;-76
2022/10/09 00:24:46;;;;;;;10.95;6.97;;;19.80;95.90;;;19.66;71.62;99322.72;5098983;28;20042;-76
2022/10/09 00:27:12;;;;;;;10.23;7.05;;;19.80;95.90;;;19.65;71.77;99315.59;5094020;28;20051;-76
2022/10/09 00:29:38;;;;;;;8.40;6.65;;;19.80;96.00;;;19.65;71.01;99313.66;5098540;28;20149;-76
2022/10/09 00:32:05;;;;;;;10.00;6.57;;;19.80;95.80;;;19.64;71.15;99316.72;5097901;28;20040;-76
2022/10/09 00:34:34;;;;;;;9.38;7.10;;;19.80;96.10;;;19.65;70.76;99319.16;5098512;28;20466;-76
2022/10/09 00:37:00;;;;;;;9.13;5.88;;;19.80;95.70;;;19.64;70.73;99316.72;5103783;28;20043;-76
2022/10/09 00:39:26;;;;;;;10.15;6.07;;;19.80;95.70;;;19.66;71.63;99315.25;5087016;28;20063;-76
2022/10/09 00:41:52;;;;;;;11.35;7.47;;;19.80;95.90;;;19.65;71.61;99313.66;5066128;28;20040;-76
2022/10/09 00:44:53;;;;;;;12.68;6.53;;;19.80;95.90;;;19.64;71.32;99320.31;5079890;28;20032;-76
2022/10/09 00:47:41;;;;;;;8.13;5.93;;;19.90;95.80;;;19.64;70.79;99328.56;5097965;28;20432;-76
2022/10/09 00:50:16;;;;;;;9.30;6.15;;;19.80;95.70;;;19.62;70.88;99330.81;5082920;28;20037;-76
2022/10/09 00:52:43;;;;;;;9.82;6.22;;;19.80;95.70;;;19.63;70.80;99346.19;5068570;28;20039;-76
2022/10/09 00:55:09;;;;;;;10.93;6.40;;;19.80;95.70;;;19.60;71.79;99343.28;5086125;28;20135;-76
2022/10/09 00:57:36;;;;;;;18.13;6.90;;;19.80;95.90;;;19.62;71.55;99341.03;5081843;28;20051;-76
2022/10/09 01:00:05;;;;;;;8.68;6.28;;;19.80;95.90;;;19.63;71.31;99343.44;5098093;28;20040;-76
2022/10/09 01:02:31;;;;;;;6.82;5.65;;;19.80;95.90;;;19.61;71.06;99340.19;5087624;28;20040;-76
2022/10/09 01:04:58;;;;;;;8.30;6.32;;;19.80;95.80;;;19.58;71.07;99334.53;5085998;28;20085;-77
2022/10/09 01:07:33;;;;;;;8.23;5.72;;;19.80;95.80;;;19.61;70.82;99323.69;5072109;28;20046;-78
2022/10/09 01:10:04;;;;;;;6.70;5.88;;;19.80;95.70;;;19.62;71.14;99333.56;5101814;28;20122;-76
2022/10/09 01:12:45;;;;;;;9.73;6.93;;;19.80;95.80;;;19.60;72.02;99337.78;5106362;28;20047;-76
2022/10/09 01:15:20;;;;;;;8.97;6.37;;;19.80;95.90;;;19.62;71.77;99341.03;5099272;28;20043;-76
2022/10/09 01:18:14;;;;;;;6.95;5.38;;;19.80;95.90;;;19.62;70.96;99344.56;5093548;28;20784;-76
2022/10/09 01:20:56;;;;;;;8.50;5.95;;;19.80;95.80;;;19.59;71.08;99350.72;5101701;28;20040;-76
2022/10/09 01:23:55;;;;;;;;;;;19.80;95.70;;;19.61;70.65;99356.69;5086927;28;20047;-76
2022/10/09 01:26:46;;;;;;;6.88;5.60;;;19.80;95.70;;;19.59;71.44;99358.97;5102730;28;19930;-76
2022/10/09 01:29:12;;;;;;;14.85;6.75;;;19.80;95.90;;;19.59;71.95;99350.72;5106540;28;20081;-76
2022/10/09 01:31:41;;;;;;;9.05;6.35;;;19.80;95.90;;;19.62;71.67;99363.03;5070132;28;20857;-76
2022/10/09 01:34:07;;;;;;;6.20;5.10;;;19.80;95.90;;;19.58;70.85;99360.09;5090570;28;20070;-76
2022/10/09 01:36:33;;;;;;;8.05;5.55;;;19.80;95.70;;;19.59;71.31;99364.50;5068612;28;20487;-76
2022/10/09 01:39:00;;;;;;;7.47;5.50;;;19.80;95.70;;;19.59;71.06;99374.66;5083662;28;20035;-76
2022/10/09 01:41:26;;;;;;;8.38;5.90;;;19.80;95.70;;;19.57;70.80;99377.75;5071811;28;20043;-76
2022/10/09 01:43:52;;;;;;;8.80;5.72;;;19.80;95.70;;;19.58;71.75;99378.56;5088931;28;20043;-76
2022/10/09 01:46:29;;;;;;;9.85;6.03;;;19.80;95.90;;;19.59;71.89;99385.66;5106494;28;20065;-76
2022/10/09 01:49:39;;;;;;;6.50;4.75;;;19.80;95.90;;;19.57;71.24;99386.00;5070824;28;20043;-76
2022/10/09 01:52:24;;;;;;;5.65;4.32;;;19.80;95.90;;;19.57;71.47;99388.75;5105192;28;20123;-76
2022/10/09 01:54:59;;;;;;;6.20;5.07;;;19.80;95.80;;;19.55;71.15;99390.22;5091756;28;20576;-76
2022/10/09 01:57:40;;;;;;;8.48;5.15;;;19.80;95.80;;;19.53;71.05;99387.75;5102403;28;20039;-76
2022/10/09 02:00:08;;;;;;;7.65;5.25;;;19.80;95.80;;;19.56;71.84;99384.38;5099581;28;20043;-76
2022/10/09 02:02:34;;;;;;;8.80;5.40;;;19.70;95.90;;;19.59;71.90;99391.16;5055138;28;20130;-76
2022/10/09 02:05:00;;;;;;;6.30;4.82;;;19.70;95.90;;;19.56;71.36;99397.31;5098268;28;20105;-76
2022/10/09 02:07:26;;;;;;;9.07;4.47;;;19.70;95.80;;;19.56;71.18;99398.13;5070417;28;20134;-76
2022/10/09 02:09:52;;;;;;;5.78;4.75;;;19.70;95.80;;;19.57;70.87;99398.97;5079868;28;20040;-77
2022/10/09 02:12:18;;;;;;;6.72;4.85;;;19.80;95.80;;;19.56;70.85;99400.88;5071770;28;20035;-76
2022/10/09 02:14:44;;;;;;;7.00;4.88;;;19.70;95.70;;;19.54;71.41;99411.41;5076930;28;20463;-76
2022/10/09 02:17:20;;;;;;;8.13;5.00;;;19.70;95.80;;;19.56;71.79;99403.63;5064729;28;20508;-76
2022/10/09 02:19:49;;;;;;;8.43;4.63;;;19.70;96.00;;;19.57;71.96;99404.47;5059130;28;20040;-76
2022/10/09 02:22:29;;;;;;;5.47;3.97;;;19.70;95.90;;;19.57;70.82;99401.72;5085352;28;20482;-76
2022/10/09 02:24:59;;;;;;;6.35;4.55;;;19.70;95.80;;;19.55;70.78;99410.28;5075245;28;20044;-76
2022/10/09 02:27:25;;;;;;;6.30;4.65;;;19.70;95.70;;;19.50;71.04;99416.72;5105598;28;20047;-76
2022/10/09 02:29:53;;;;;;;5.25;4.32;;;19.70;95.70;;;19.51;71.04;99409.28;5099383;28;20040;-76
2022/10/09 02:32:19;;;;;;;8.05;4.72;;;19.70;95.70;;;19.51;71.82;99417.53;5064551;28;20036;-76
2022/10/09 02:34:45;;;;;;;8.25;4.93;;;19.70;95.90;;;19.53;71.85;99415.28;5084255;28;20108;-76
2022/10/09 02:37:11;;;;;;;6.65;4.78;;;19.70;96.00;;;19.55;71.21;99417.72;5092121;28;20047;-76
2022/10/09 02:39:37;;;;;;;5.85;4.97;;;19.70;95.90;;;19.52;71.27;99424.66;5072072;28;20447;-76
2022/10/09 02:42:03;;;;;;;7.05;4.53;;;19.70;95.80;;;19.50;71.20;99424.97;5099196;28;20123;-76
2022/10/09 02:44:29;;;;;;;6.30;4.95;;;19.70;95.70;;;19.50;71.14;99426.91;5071226;28;20140;-76
2022/10/09 02:46:55;;;;;;;5.90;4.65;;;19.70;95.70;;;19.48;71.76;99434.69;5084922;28;20040;-76
2022/10/09 02:49:21;;;;;;;6.50;4.63;;;19.70;95.90;;;19.48;72.07;99445.69;5079660;28;20504;-76
2022/10/09 02:51:47;;;;;;;7.15;5.03;;;19.70;95.90;;;19.49;72.37;99445.38;5087088;28;20041;-76
2022/10/09 02:54:13;;;;;;;5.40;4.10;;;19.70;96.00;;;19.50;71.48;99441.47;5089435;28;20044;-76
2022/10/09 02:56:39;;;;;;;7.65;5.13;;;19.70;95.90;;;19.49;71.04;99445.38;5073765;28;20036;-76
2022/10/09 02:59:06;;;;;;;4.90;4.07;;;19.70;95.80;;;19.47;71.34;99452.31;5084069;28;20485;-76
2022/10/09 03:01:33;;;;;;;4.60;4.18;;;19.70;95.80;;;19.49;71.14;99458.34;5085713;28;20051;-76
2022/10/09 03:04:00;;;;;;;5.65;4.15;;;19.70;95.80;;;19.49;71.99;99463.84;5099561;28;20044;-76
2022/10/09 03:06:27;;;;;;;5.18;3.88;;;19.60;95.90;;;19.46;72.38;99470.78;5068180;28;20123;-75
2022/10/09 03:08:53;;;;;;;6.93;5.10;;;19.60;96.00;;;19.45;72.29;99469.13;5055221;28;20407;-75
2022/10/09 03:11:20;;;;;;;5.60;4.28;;;19.60;95.90;;;19.44;71.81;99469.47;5083095;28;20530;-75
2022/10/09 03:13:46;;;;;;;6.50;4.32;;;19.70;96.30;;;19.45;71.53;99463.63;5065196;28;20499;-75
2022/10/09 03:16:15;;;;;;;6.90;3.88;;;19.60;95.80;;;19.46;71.22;99470.78;5073041;28;20040;-75
2022/10/09 03:18:41;;;;;;;4.40;3.60;;;19.60;95.80;;;19.46;71.35;99469.94;5066533;28;20040;-75
2022/10/09 03:21:15;;;;;;;5.82;3.83;;;19.70;95.80;;;19.47;72.18;99477.88;5098195;28;20116;-75
2022/10/09 03:23:42;;;;;;;6.22;3.97;;;19.60;95.90;;;19.43;72.33;99476.88;5085981;28;20046;-75
2022/10/09 03:26:11;;;;;;;5.72;3.95;;;19.60;96.00;;;19.44;71.62;99483.22;5068449;28;20563;-75
2022/10/09 03:28:39;;;;;;;4.25;3.85;;;19.60;95.90;;;19.43;71.41;99478.84;5056867;28;20065;-75
2022/10/09 03:31:05;;;;;;;4.07;3.67;;;19.60;95.80;;;19.43;71.32;99482.38;5064233;28;20047;-75
2022/10/09 03:33:33;;;;;;;5.95;3.47;;;19.60;95.80;;;19.43;71.23;99489.84;5099542;28;20084;-75
2022/10/09 03:35:59;;;;;;;4.15;3.70;;;19.60;95.80;;;19.45;72.22;99490.34;5084613;28;20036;-75
2022/10/09 03:38:25;;;;;;;4.32;3.47;;;19.60;96.00;;;19.45;73.00;99493.09;5053584;28;20049;-75
2022/10/09 03:40:51;;;;;;;6.47;4.22;;;19.60;96.10;;;19.40;72.63;99494.03;5064718;28;20040;-75
2022/10/09 03:43:17;;;;;;;6.32;4.22;;;19.60;96.00;;;19.41;71.96;99498.44;5085786;28;20044;-75
2022/10/09 03:45:43;;;;;;;5.40;3.60;;;19.60;95.90;;;19.40;71.64;99495.97;5082133;28;20063;-75
2022/10/09 03:48:10;;;;;;;5.82;4.25;;;19.60;95.90;;;19.43;71.46;99490.66;5085090;28;20854;-75
2022/10/09 03:50:37;;;;;;;5.53;4.15;;;19.60;95.90;;;19.39;72.09;99486.13;5067317;28;20098;-75
2022/10/09 03:53:04;;;;;;;4.63;3.92;;;19.50;95.90;;;19.37;71.98;99489.16;5073106;28;20096;-75
2022/10/09 03:55:31;;;;;;;4.57;3.35;;;19.50;95.90;;;19.38;70.49;99501.78;5084436;28;20046;-75
2022/10/09 03:57:57;;;;;;;4.55;3.45;;;19.50;95.60;;;19.36;70.32;99497.72;5070951;28;20372;-75
2022/10/09 04:00:23;;;;;;;6.05;3.85;;;19.50;95.50;;;19.33;69.68;99506.63;5085126;28;20047;-75
2022/10/09 04:02:49;;;;;;;3.58;3.25;;;19.50;95.50;;;19.35;70.49;99513.41;5081996;28;20058;-76
2022/10/09 04:05:16;;;;;;;5.60;4.25;;;19.50;95.60;;;19.34;72.20;99516.50;5083595;28;20467;-75
2022/10/09 04:07:42;;;;;;;5.35;3.50;;;19.50;95.90;;;19.33;72.47;99514.88;5065986;28;20397;-75
2022/10/09 04:10:09;;;;;;;5.78;3.42;;;19.50;96.00;;;19.33;71.44;99515.66;5083423;28;20036;-75
2022/10/09 04:12:35;;;;;;;3.60;2.72;;;19.50;95.70;;;19.32;69.97;99516.00;5067522;28;20036;-75
2022/10/09 04:15:01;;;;;;;9.85;2.97;;;19.50;95.50;;;19.29;69.86;99515.50;5081932;28;20084;-75
2022/10/09 04:17:27;;;;;;;3.75;3.17;;;19.50;95.50;;;19.29;69.65;99517.44;5080353;28;20040;-75
2022/10/09 04:19:53;;;;;;;6.13;3.72;;;19.40;95.40;;;19.30;70.96;99522.63;5082761;28;20066;-75
2022/10/09 04:22:19;;;;;;;5.22;3.50;;;19.50;95.80;;;19.30;71.97;99528.13;5107038;28;20418;-75
2022/10/09 04:24:45;;;;;;;3.92;3.05;;;19.40;95.90;;;19.28;72.24;99526.81;5079169;28;20047;-75
2022/10/09 04:27:11;;;;;;;6.55;2.97;;;19.40;95.90;;;19.26;70.07;99523.56;5088078;28;20046;-75
2022/10/09 04:29:38;;;;;;;4.10;3.30;;;19.40;95.50;;;19.28;69.63;99530.38;5098953;28;20097;-76
2022/10/09 04:32:05;;;;;;;3.83;2.95;;;19.50;95.50;;;19.25;69.59;99530.19;5099656;28;20092;-76
2022/10/09 04:34:31;;;;;;;4.70;2.92;;;19.40;95.40;;;19.26;69.43;99540.88;5081665;28;20032;-75
2022/10/09 04:36:57;;;;;;;7.00;3.13;;;19.40;95.40;;;19.28;71.29;99535.91;5101474;28;20185;-75
2022/10/09 04:39:23;;;;;;;3.65;3.28;;;19.40;95.80;;;19.24;71.76;99540.38;5086747;28;20035;-75
2022/10/09 04:41:49;;;;;;;4.07;2.78;;;19.40;95.90;;;19.20;71.43;99539.38;5092389;28;20043;-75
2022/10/09 04:44:15;;;;;;;3.08;2.75;;;19.40;95.70;;;19.26;69.50;99543.63;5103054;28;20120;-76
2022/10/09 04:46:41;;;;;;;3.42;2.80;;;19.40;95.40;;;19.27;68.97;99556.25;5085393;28;20127;-76
2022/10/09 04:49:12;;;;;;;3.03;2.72;;;19.40;95.30;;;19.24;68.85;99553.31;5083520;28;20044;-76
2022/10/09 04:51:38;;;;;;;4.03;2.97;;;19.40;95.30;;;19.24;69.57;99551.38;5087758;28;20039;-76
2022/10/09 04:54:04;;;;;;;4.35;3.10;;;19.40;95.50;;;19.23;71.11;99548.94;5085976;28;20039;-76
2022/10/09 04:56:30;;;;;;;4.10;3.17;;;19.40;95.80;;;19.25;71.18;99557.69;5071298;28;20040;-77
2022/10/09 04:58:56;;;;;;;4.10;3.08;;;19.40;95.90;;;19.24;69.57;99559.63;5083888;28;20503;-77
2022/10/09 05:01:25;;;;;;;3.63;3.03;;;19.40;95.60;;;19.24;69.19;99558.81;5089741;28;20076;-76
2022/10/09 05:03:51;;;;;;;2.80;2.53;;;19.40;95.40;;;19.18;69.07;99566.38;5093619;28;20568;-77
2022/10/09 05:06:17;;;;;;;2.30;2.00;;;19.30;95.30;;;19.15;68.90;99567.00;5086546;28;20516;-76
2022/10/09 05:08:44;;;;;;;6.07;2.80;;;19.30;95.20;;;19.23;70.20;99574.53;5083524;28;20509;-76
2022/10/09 05:11:12;;;;;;;4.57;2.95;;;19.30;95.60;;;19.24;70.57;99576.13;5102922;28;20395;-78
2022/10/09 05:13:44;;;;;;;4.32;2.47;;;19.30;95.80;;;19.25;70.49;99577.75;5072650;28;20045;-78
2022/10/09 05:16:16;;;;;;;2.70;2.50;;;19.30;95.80;;;19.24;68.72;99578.88;5089883;28;20091;-78
2022/10/09 05:18:43;;;;;;;4.00;2.40;;;19.30;95.40;;;19.23;68.35;99588.28;5068943;28;20089;-78
2022/10/09 05:21:09;;;;;;;5.57;2.90;;;19.30;95.20;;;19.21;67.97;99585.03;5065380;28;20032;-78
2022/10/09 05:23:35;;;;;;;5.40;3.25;;;19.30;95.20;;;19.21;68.13;99585.03;5084139;28;20062;-79
2022/10/09 05:26:05;;;;;;;2.70;2.22;;;19.30;95.30;;;19.22;70.13;99583.88;5050946;28;20476;-79
2022/10/09 05:28:31;;;;;;;3.20;2.90;;;19.30;95.70;;;19.24;69.41;99589.88;5065735;28;20090;-79
2022/10/09 05:30:58;;;;;;;5.35;2.47;;;19.30;95.70;;;19.19;69.73;99597.47;5088125;28;20505;-79
2022/10/09 05:33:24;;;;;;;2.85;2.50;;;19.30;95.50;;;19.18;68.26;99596.63;5081999;28;20048;-79
2022/10/09 05:36:01;;;;;;;2.88;2.58;;;19.30;95.20;;;19.17;67.85;99606.00;5081347;28;20040;-79
2022/10/09 05:38:48;;;;;;;2.95;2.30;;;19.30;95.10;;;19.20;67.73;99610.88;5080945;28;20722;-78
2022/10/09 05:41:16;;;;;;;2.80;2.30;;;19.30;95.10;;;19.18;69.29;99612.31;5083526;28;20060;-78
2022/10/09 05:43:43;;;;;;;2.95;2.42;;;19.20;95.50;;;19.20;69.63;99621.06;5081196;28;20566;-82
2022/10/09 05:46:22;;;;;;;2.38;2.17;;;19.30;95.70;;;19.21;69.79;99617.19;5047824;28;20079;-81
2022/10/09 05:48:57;;;;;;;3.75;2.42;;;19.30;95.70;;;19.21;67.88;99617.19;5082656;28;20476;-77
2022/10/09 05:51:28;;;;;;;3.55;2.47;;;19.30;95.30;;;19.23;67.63;99624.03;5062832;28;20115;-77
2022/10/09 05:53:55;;;;;;;;;;;19.30;95.20;;;19.21;68.36;99628.19;5069478;28;20044;-76
2022/10/09 05:56:35;;;;;;;2.45;2.22;;;19.30;95.40;;;19.26;68.19;99625.34;5089061;28;19998;-78
2022/10/09 05:59:06;;;;;;;3.65;2.22;;;19.30;95.40;;;19.25;68.21;99624.50;5054124;28;20043;-76
2022/10/09 06:01:38;;;;;;;2.97;2.03;;;19.30;95.40;;;19.27;68.10;99637.97;5078976;28;20086;-78
2022/10/09 06:04:05;;;;;;;2.20;2.00;;;19.30;95.40;;;19.26;68.84;99641.84;5045727;28;20059;-76
2022/10/09 06:06:32;;;;;;;3.38;2.22;;;19.30;95.60;;;19.27;69.22;99644.28;5078639;28;20553;-78
2022/10/09 06:08:59;;;;;;;4.90;2.25;;;19.30;95.70;;;19.29;68.93;99654.97;5049910;28;20058;-78
2022/10/09 06:11:27;;;;;;;3.50;2.40;;;19.30;95.60;;;19.29;68.40;99658.53;5066889;28;20070;-77
2022/10/09 06:13:54;;;;;;;3.28;2.75;;;19.30;95.50;;;19.32;68.30;99650.78;5100264;28;20123;-75
2022/10/09 06:16:26;;;;;;;2.03;1.92;;;19.40;95.50;;;19.27;68.24;99663.53;5049657;28;20510;-75
2022/10/09 06:18:53;;;;;;;2.42;2.25;;;19.30;95.40;;;19.33;68.36;99660.66;5082708;28;20139;-75
2022/10/09 06:21:19;;;;;;;3.00;2.17;;;19.40;95.50;;;19.38;69.33;99671.53;5080776;28;20437;-75
2022/10/09 06:23:49;;;;;;;2.55;1.95;;;19.40;95.80;;;19.35;69.37;99672.16;5074760;28;20055;-75
2022/10/09 06:26:15;;;;;;;3.70;1.80;;;19.40;95.70;;;19.34;69.08;99676.88;5102842;28;20054;-76
2022/10/09 06:28:41;;;;;;;3.22;2.50;;;19.40;95.60;;;19.42;68.74;99683.56;5052394;28;20047;-76
2022/10/09 06:31:21;;;;;;;2.50;2.30;;;19.40;95.70;;;19.37;68.78;99690.00;5078844;28;20541;-75
2022/10/09 06:33:49;;;;;;;2.72;2.25;;;19.40;95.60;;;19.40;68.61;99685.81;5095553;28;20088;-75
2022/10/09 06:36:18;;;;;;;4.35;3.17;;;19.40;95.50;;;19.40;69.25;99688.56;5084715;28;20040;-76
2022/10/09 06:38:44;;;;;;;2.55;2.00;;;19.40;95.70;;;19.44;68.71;99693.13;5062040;28;20524;-76
2022/10/09 06:41:15;;;;;;;2.72;2.25;;;19.40;95.70;;;19.43;69.17;99694.25;5046838;28;20554;-76
2022/10/09 06:43:41;;;;;;;2.50;2.22;;;19.40;95.70;;;19.51;68.19;99700.94;5084303;28;20399;-76
2022/10/09 06:46:09;;;;;;;3.90;2.30;;;19.50;95.60;;;19.53;67.81;99701.44;5065312;28;20441;-76
2022/10/09 06:48:36;;;;;;;4.97;2.13;;;19.50;95.50;;;19.56;67.83;99708.28;5065108;28;20047;-76
2022/10/09 06:51:10;;;;;;;11.98;2.63;;;19.50;95.50;;;19.55;67.71;99703.91;5065077;28;20467;-76
2022/10/09 06:53:44;;;;;;;4.00;3.50;;;19.50;95.50;;;19.60;68.41;99712.03;5077600;28;20089;-76
2022/10/09 06:56:11;;;;;;;5.75;2.40;;;19.50;95.80;;;19.57;68.58;99716.22;5065497;28;20117;-76
2022/10/09 06:58:37;;;;;;;2.63;2.10;;;19.50;95.70;;;19.58;67.92;99720.59;5084705;28;20567;-76
2022/10/09 07:01:23;;;;;;;7.07;2.55;;;19.60;95.60;;;19.58;67.83;99717.84;5082724;28;20655;-76
2022/10/09 07:03:58;;;;;;;3.53;2.25;;;19.50;95.50;;;19.54;68.04;99719.59;5082515;28;20799;-76
2022/10/09 07:06:26;;;;;;;3.08;2.30;;;19.60;95.50;;;19.61;67.53;99725.47;5086072;28;20624;-76
2022/10/09 07:08:56;;;;;;;3.15;2.28;;;19.60;95.50;;;19.59;68.32;99726.91;5069346;28;20170;-76
2022/10/09 07:11:29;;;;;;;3.05;2.20;;;19.60;95.70;;;19.56;68.62;99725.59;5079966;28;20028;-76
2022/10/09 07:13:57;;;;;;;2.15;1.88;;;19.60;95.60;;;19.64;67.79;99724.88;5084290;28;20057;-76
2022/10/09 07:16:26;;;;;;;2.78;1.90;;;19.60;95.60;;;19.61;67.87;99725.47;5077266;28;20489;-78
2022/10/09 07:18:52;;;;;;;3.75;2.20;;;19.60;95.50;;;19.61;67.59;99725.47;5070411;28;20515;-77
2022/10/09 07:21:18;;;;;;;7.80;2.55;;;19.60;95.50;;;19.60;67.55;99728.56;5080590;28;20039;-80
2022/10/09 07:23:44;;;;;;;2.50;2.28;;;19.60;95.40;;;19.63;67.61;99727.91;5077467;28;20044;-80
2022/10/09 07:26:16;;;;;;;4.03;2.42;;;19.60;95.50;;;19.63;68.58;99734.22;5062384;28;20109;-78
2022/10/09 07:28:43;;;;;;;3.63;1.60;;;19.60;95.60;;;19.65;68.72;99736.69;5055461;28;20043;-77
2022/10/09 07:31:09;;;;;;;2.65;2.45;;;19.70;95.70;;;19.67;67.89;99746.28;5065320;28;20040;-78
2022/10/09 07:33:35;;;;;;;5.88;2.67;;;19.60;95.50;;;19.72;67.38;99739.84;5081926;28;20051;-79
2022/10/09 07:36:02;;;;;;;6.18;3.03;;;19.70;95.40;;;19.78;66.88;99740.53;5084733;28;20090;-78
2022/10/09 07:38:29;;;;;;;3.97;3.42;;;19.70;95.40;;;19.79;66.47;99742.16;5081519;28;20047;-79
2022/10/09 07:41:09;;;;;;;4.65;2.67;;;19.70;95.30;;;19.80;66.98;99743.81;5063664;28;20047;-79
2022/10/09 07:43:37;;;;;;;3.28;2.03;;;19.70;95.40;;;19.82;66.94;99741.53;5065193;28;20036;-77
2022/10/09 07:46:04;;;;;;;4.28;2.10;;;19.70;95.40;;;19.82;66.89;99739.63;5065298;28;20479;-78
2022/10/09 07:48:30;;;;;;;3.25;2.55;;;19.80;95.40;;;19.85;66.26;99743.69;5063180;28;20044;-78
2022/10/09 07:50:56;;;;;;;4.20;2.38;;;19.80;95.30;;;19.88;65.68;99743.03;5076397;28;20526;-76
2022/10/09 07:53:22;;;;;;;2.35;2.03;;;19.80;95.20;;;19.86;65.69;99748.03;5085379;28;20051;-74
2022/10/09 07:55:48;;;;;;;3.70;2.17;;;19.80;95.00;;;19.85;65.97;99751.94;5075811;28;20394;-74
2022/10/09 07:58:15;;;;;;;6.20;2.45;;;19.80;95.00;;;19.83;67.17;99740.41;5061901;28;20157;-74
2022/10/09 08:00:42;;;;;;;3.88;2.22;;;19.80;95.50;;;19.82;67.58;99747.03;5081789;28;20071;-74
2022/10/09 08:03:08;;;;;;;3.97;2.78;;;19.90;95.60;;;19.80;67.04;99746.56;5077768;28;20141;-74
2022/10/09 08:05:34;;;;;;;5.47;2.65;;;19.90;95.40;;;19.80;66.78;99744.63;5093758;28;20044;-74
2022/10/09 08:08:00;;;;;;;4.43;2.33;;;19.90;95.30;;;19.82;66.58;99747.03;5081812;28;20055;-74
2022/10/09 08:10:29;;;;;;;3.53;2.25;;;19.90;95.20;;;19.81;66.22;99748.97;5087761;28;20055;-74
2022/10/09 08:12:55;;;;;;;3.25;2.17;;;19.90;95.10;;;19.84;66.78;99753.84;5105686;28;20083;-74
2022/10/09 08:15:22;;;;;;;4.38;2.40;;;19.90;95.40;;;19.86;67.22;99751.59;5104110;28;20118;-74
2022/10/09 08:17:53;;;;;;;5.60;2.55;;;19.90;95.50;;;19.87;67.54;99756.00;5068736;28;20039;-76
2022/10/09 08:20:19;;;;;;;5.97;3.03;;;19.90;95.50;;;19.86;66.53;99759.06;5098344;28;20483;-81
2022/10/09 08:22:45;;;;;;;6.07;3.15;;;19.90;95.20;;;19.87;66.34;99753.25;5069944;28;20762;-76
2022/10/09 08:25:11;;;;;;;10.10;4.47;;;19.90;95.10;;;19.87;67.02;99756.00;5086396;28;20039;-74
2022/10/09 08:27:37;;;;;;;6.47;4.45;;;19.90;95.40;;;19.86;67.23;99765.38;5086699;28;20044;-74
2022/10/09 08:30:05;;;;;;;15.57;5.85;;;19.90;95.30;;;19.91;68.19;99767.19;5094528;28;20040;-75
2022/10/09 08:32:31;;;;;;;16.92;7.00;;;20.00;95.80;;;19.94;68.24;99772.06;5088727;28;20534;-75
2022/10/09 08:34:57;;;;;;;16.70;7.53;;;20.00;95.70;;;19.93;68.76;99770.47;5072179;28;20054;-75
2022/10/09 08:37:23;;;;;;;20.80;7.68;;;20.00;95.80;;;20.01;68.09;99771.66;5071682;28;20118;-75
2022/10/09 08:39:49;;;;;;;21.63;7.47;;;20.00;95.70;;;19.99;67.96;99777.47;5104850;28;20050;-75
2022/10/09 08:42:51;;;;;;;19.00;8.25;;;20.00;95.50;;;20.02;67.37;99774.06;5099225;28;20044;-75
2022/10/09 08:45:18;;;;;;;19.27;7.03;;;20.00;95.50;;;20.01;67.26;99774.41;5066012;28;20078;-75
2022/10/09 08:47:55;;;;;;;23.42;7.45;;;20.00;95.50;;;20.00;67.42;99781.03;5051614;28;20418;-75
2022/10/09 08:50:25;;;;;;;16.70;6.25;;;20.00;95.50;;;19.97;67.62;99771.44;5085859;28;20114;-75
2022/10/09 08:53:24;;;;;;;14.88;6.78;;;20.00;95.50;;;19.97;67.03;99776.94;5067783;28;20451;-75
2022/10/09 08:55:58;;;;;;;16.40;6.90;;;20.00;95.40;;;19.97;66.71;99781.66;5099515;28;20111;-75
2022/10/09 08:58:30;;;;;;;13.82;6.22;;;20.00;95.20;;;20.00;66.43;99776.34;5084478;28;20165;-75
2022/10/09 09:01:26;;;;;;;15.00;6.60;;;20.00;95.10;;;20.01;66.24;99777.16;5055082;28;20066;-75
2022/10/09 09:04:35;;;;;;;16.67;7.50;;;20.10;95.20;;;20.04;66.44;99782.84;5086638;28;20040;-75
2022/10/09 09:07:13;;;;;;;16.73;7.07;;;20.10;95.20;;;20.04;66.13;99782.84;5100018;28;20078;-75
2022/10/09 09:10:03;;;;;;;17.08;6.32;;;20.10;95.20;;;20.05;65.67;99775.38;5098443;28;20109;-75
2022/10/09 09:12:46;;;;;;;17.27;7.22;;;20.10;95.20;;;20.08;65.38;99783.06;5100173;28;20087;-75
2022/10/09 09:15:32;;;;;;;13.23;5.68;;;20.10;95.20;;;20.19;64.56;99784.41;5072361;28;20092;-75
2022/10/09 09:18:26;;;;;;;15.13;6.20;;;20.10;95.10;;;20.17;64.60;99786.66;5105031;28;20086;-75
2022/10/09 09:20:54;;;;;;;13.55;6.65;;;20.10;95.10;;;20.14;65.03;99782.59;5101990;28;20126;-75
2022/10/09 09:23:30;;;;;;;18.45;8.10;;;20.10;95.20;;;20.10;65.15;99778.03;5055681;28;20118;-75
2022/10/09 09:25:58;;;;;;;16.20;6.70;;;20.10;95.20;;;20.12;64.64;99787.63;5056167;28;20127;-75
2022/10/09 09:28:32;;;;;;;10.82;5.47;;;20.10;95.00;;;20.15;64.01;99778.72;5069191;28;20044;-75
2022/10/09 09:31:17;;;;;;;12.32;6.45;;;20.10;94.90;;;20.10;64.47;99775.28;5085287;28;20134;-75
2022/10/09 09:33:55;;;;;;;18.50;5.45;;;20.10;94.90;;;20.14;64.26;99782.59;5100408;28;20060;-75
2022/10/09 09:36:30;;;;;;;13.68;6.85;;;20.20;95.00;;;20.16;64.51;99791.38;5098069;28;20050;-75
2022/10/09 09:38:57;;;;;;;23.60;6.63;;;20.20;95.00;;;20.24;64.18;99775.22;5056198;28;20040;-75
2022/10/09 09:41:24;;;;;;;13.05;5.85;;;20.20;95.00;;;20.26;63.48;99789.50;5082755;28;20139;-75
2022/10/09 09:43:49;;;;;;;10.48;5.25;;;20.20;94.80;;;20.33;63.07;99793.44;5103717;28;20044;-75
2022/10/09 09:46:21;;;;;;;17.98;6.70;;;20.20;94.80;;;20.41;62.42;99780.84;5096147;28;20036;-75
2022/10/09 09:48:48;;;;;;;14.52;7.13;;;20.20;94.70;;;20.32;62.55;99788.22;5079637;28;20048;-75
2022/10/09 09:51:20;;;;;;;15.65;5.82;;;20.20;94.70;;;20.31;63.13;99786.59;5087067;28;20044;-75
2022/10/09 09:54:09;;;;;;;13.45;5.85;;;20.20;94.80;;;20.28;62.77;99792.75;5100514;28;20052;-75
2022/10/09 09:56:39;;;;;;;18.65;6.18;;;20.30;94.80;;;20.27;63.15;99788.34;5100236;28;20040;-75
2022/10/09 09:59:05;;;;;;;11.77;6.00;;;20.30;94.70;;;20.33;62.65;99790.69;5080431;28;20411;-75
2022/10/09 10:01:32;;;;;;;17.55;6.13;;;20.30;94.70;;;20.37;62.16;99785.34;5078032;28;20040;-75
2022/10/09 10:04:01;;;;;;;15.98;5.55;;;20.30;94.60;;;20.37;61.86;99785.34;5103538;28;20074;-75
2022/10/09 10:06:32;;;;;;;13.88;7.80;;;20.30;94.60;;;20.41;61.94;99777.28;5081249;28;20040;-75
2022/10/09 10:09:04;;;;;;;12.17;5.87;;;20.30;94.60;;;20.38;62.66;99781.47;5094633;28;20044;-75
2022/10/09 10:11:31;;;;;;;10.50;5.65;;;20.30;94.70;;;20.42;62.15;99776.13;5066316;28;20119;-75
2022/10/09 10:14:04;;;;;;;17.58;6.57;;;20.40;94.70;;;20.40;61.86;99773.69;5081597;28;20065;-75
2022/10/09 10:16:30;;;;;;;9.65;5.20;;;20.40;94.60;;;20.39;61.79;99783.09;5066191;28;20058;-75
2022/10/09 10:18:56;;;;;;;13.07;6.03;;;20.40;94.60;;;20.44;61.33;99785.72;5080774;28;20044;-75
2022/10/09 10:21:22;;;;;;;15.88;6.20;;;20.40;94.50;;;20.39;61.52;99772.88;5092626;28;20044;-75
2022/10/09 10:23:53;;;;;;;12.15;6.20;;;20.40;94.50;;;20.39;61.99;99772.06;5095138;28;20044;-75
2022/10/09 10:26:49;;;;;;;15.40;5.30;;;20.40;94.60;;;20.44;62.10;99774.69;5067546;28;20120;-75
2022/10/09 10:29:24;;;;;;;10.50;5.13;;;20.40;94.60;;;20.47;61.52;99773.25;5072934;28;20050;-75